createdAt,value
2017-11-05T00:00:49.734Z,36.80
2017-11-05T00:03:17.378Z,38.03
2017-11-05T00:05:45.074Z,33.97
2017-11-05T00:08:12.713Z,32.33
2017-11-05T00:10:40.396Z,36.43
2017-11-05T00:13:08.045Z,33.97
2017-11-05T00:15:35.734Z,34.77
2017-11-05T00:18:03.388Z,34.67
2017-11-05T00:20:31.095Z,32.97
2017-11-05T00:22:58.758Z,36.60
2017-11-05T00:25:26.394Z,35.40
2017-11-05T00:27:54.062Z,37.53
2017-11-05T00:30:21.714Z,36.53
2017-11-05T00:32:49.401Z,32.70
2017-11-05T00:35:17.111Z,36.00
2017-11-05T00:37:44.816Z,37.80
2017-11-05T00:40:12.463Z,31.80
2017-11-05T00:42:40.092Z,33.30
2017-11-05T00:45:07.730Z,38.70
2017-11-05T00:47:35.426Z,34.63
2017-11-05T00:50:03.986Z,37.20
2017-11-05T00:52:31.675Z,35.13
2017-11-05T00:54:59.335Z,34.87
2017-11-05T00:57:27.024Z,35.40
2017-11-05T00:59:54.680Z,33.73
2017-11-05T01:02:22.359Z,30.90
2017-11-05T01:04:50.012Z,34.03
2017-11-05T01:07:17.715Z,33.50
2017-11-05T01:09:45.379Z,41.53
2017-11-05T01:12:13.057Z,36.20
2017-11-05T01:14:40.703Z,35.23
2017-11-05T01:17:08.378Z,33.30
2017-11-05T01:19:36.070Z,46.80
2017-11-05T01:22:03.731Z,33.50
2017-11-05T01:24:31.419Z,31.80
2017-11-05T01:26:59.067Z,33.03
2017-11-05T01:29:26.708Z,35.23
2017-11-05T01:31:54.376Z,33.50
2017-11-05T01:34:22.067Z,29.70
2017-11-05T01:36:49.750Z,36.93
2017-11-05T01:39:17.451Z,32.50
2017-11-05T01:41:45.098Z,31.47
2017-11-05T01:44:12.779Z,37.90
2017-11-05T01:46:40.437Z,30.80
2017-11-05T01:49:08.113Z,35.97
2017-11-05T01:51:35.778Z,31.77
2017-11-05T01:54:03.462Z,35.20
2017-11-05T01:56:31.119Z,33.13
2017-11-05T01:58:58.761Z,33.90
2017-11-05T02:01:26.364Z,33.43
2017-11-05T02:03:54.040Z,35.23
2017-11-05T02:06:21.678Z,34.57
2017-11-05T02:08:49.370Z,35.10
2017-11-05T02:11:17.009Z,38.80
2017-11-05T02:13:44.712Z,31.27
2017-11-05T02:16:12.369Z,36.23
2017-11-05T02:18:40.028Z,35.77
2017-11-05T02:21:07.713Z,31.73
2017-11-05T02:23:35.355Z,40.53
2017-11-05T02:26:03.034Z,38.27
2017-11-05T02:28:30.707Z,37.47
2017-11-05T02:30:58.417Z,33.27
2017-11-05T02:33:26.059Z,34.37
2017-11-05T02:35:53.781Z,36.40
2017-11-05T02:38:21.429Z,38.90
2017-11-05T02:40:49.120Z,33.17
2017-11-05T02:43:16.779Z,33.77
2017-11-05T02:45:44.473Z,37.17
2017-11-05T02:48:12.117Z,40.60
2017-11-05T02:50:39.808Z,36.17
2017-11-05T02:53:07.459Z,39.93
2017-11-05T02:55:35.107Z,44.60
2017-11-05T02:58:02.794Z,40.00
2017-11-05T03:00:30.441Z,39.93
2017-11-05T03:02:58.127Z,47.37
2017-11-05T03:05:25.799Z,43.93
2017-11-05T03:07:53.487Z,39.10
2017-11-05T03:10:21.129Z,39.50
2017-11-05T03:12:48.745Z,41.50
2017-11-05T03:15:16.409Z,38.07
2017-11-05T03:17:44.099Z,39.07
2017-11-05T03:20:11.745Z,38.60
2017-11-05T03:22:39.442Z,40.40
2017-11-05T03:25:07.118Z,43.80
2017-11-05T03:27:34.759Z,41.87
2017-11-05T03:30:02.413Z,38.63
2017-11-05T03:32:30.122Z,53.07
2017-11-05T03:34:57.823Z,47.20
2017-11-05T03:37:25.506Z,47.87
2017-11-05T03:39:53.159Z,54.40
2017-11-05T03:42:20.814Z,55.23
2017-11-05T03:44:48.462Z,53.20
2017-11-05T03:47:16.132Z,57.97
2017-11-05T03:49:43.817Z,48.47
2017-11-05T03:52:11.498Z,43.43
2017-11-05T03:54:39.221Z,44.40
2017-11-05T03:57:06.907Z,41.33
2017-11-05T03:59:34.622Z,40.10
2017-11-05T04:02:02.286Z,40.43
2017-11-05T04:04:29.999Z,37.30
2017-11-05T04:06:57.686Z,48.43
2017-11-05T04:09:25.379Z,42.17
2017-11-05T04:11:53.029Z,42.43
2017-11-05T04:14:20.725Z,49.63
2017-11-05T04:16:48.381Z,42.93
2017-11-05T04:19:16.065Z,44.57
2017-11-05T04:21:43.719Z,48.07
2017-11-05T04:24:11.412Z,51.50
2017-11-05T04:26:39.056Z,47.50
2017-11-05T04:29:06.739Z,50.33
2017-11-05T04:31:34.385Z,52.90
2017-11-05T04:34:02.066Z,55.13
2017-11-05T04:36:29.800Z,51.03
2017-11-05T04:38:57.501Z,42.63
2017-11-05T04:41:25.188Z,41.83
2017-11-05T04:43:52.871Z,43.30
2017-11-05T04:46:20.575Z,40.30
2017-11-05T04:48:48.222Z,42.93
2017-11-05T04:51:15.906Z,37.80
2017-11-05T04:53:43.551Z,40.23
2017-11-05T04:56:11.277Z,42.40
2017-11-05T04:58:38.955Z,38.87
2017-11-05T05:01:06.639Z,38.10
2017-11-05T05:03:34.295Z,43.43
2017-11-05T05:06:01.985Z,40.90
2017-11-05T05:08:29.637Z,42.33
2017-11-05T05:10:57.333Z,37.93
2017-11-05T05:13:24.983Z,41.57
2017-11-05T05:15:52.691Z,36.90
2017-11-05T05:18:20.350Z,37.17
2017-11-05T05:20:48.035Z,40.30
2017-11-05T05:23:15.675Z,40.80
2017-11-05T05:25:43.375Z,38.43
2017-11-05T05:28:10.957Z,39.43
2017-11-05T05:30:38.647Z,36.80
2017-11-05T05:33:06.306Z,42.80
2017-11-05T05:35:34.021Z,39.87
2017-11-05T05:38:01.667Z,44.10
2017-11-05T05:40:29.379Z,42.27
2017-11-05T05:42:57.046Z,43.63
2017-11-05T05:45:24.757Z,46.10
2017-11-05T05:47:52.472Z,37.60
2017-11-05T05:50:20.152Z,39.60
2017-11-05T05:52:47.866Z,48.60
2017-11-05T05:55:15.530Z,34.37
2017-11-05T05:57:43.221Z,34.20
2017-11-05T06:00:10.884Z,33.53
2017-11-05T06:02:38.597Z,37.77
2017-11-05T06:05:06.257Z,33.43
2017-11-05T06:07:33.942Z,39.70
2017-11-05T06:10:01.598Z,37.97
2017-11-05T06:12:29.224Z,43.77
2017-11-05T06:14:56.847Z,36.93
2017-11-05T06:17:24.554Z,39.93
2017-11-05T06:19:52.213Z,38.70
2017-11-05T06:22:19.919Z,36.30
2017-11-05T06:24:47.590Z,41.23
2017-11-05T06:27:15.322Z,36.30
2017-11-05T06:29:42.974Z,36.90
2017-11-05T06:32:10.649Z,36.30
2017-11-05T06:34:38.342Z,43.03
2017-11-05T06:37:06.032Z,34.93
2017-11-05T06:39:33.750Z,39.47
2017-11-05T06:42:01.358Z,35.23
2017-11-05T06:44:29.057Z,36.57
2017-11-05T06:46:56.646Z,37.67
2017-11-05T06:49:24.334Z,33.40
2017-11-05T06:51:51.996Z,41.73
2017-11-05T06:54:19.716Z,39.20
2017-11-05T06:56:47.376Z,36.47
2017-11-05T06:59:15.094Z,35.57
2017-11-05T07:01:42.787Z,33.70
2017-11-05T07:04:10.466Z,36.57
2017-11-05T07:06:38.135Z,40.07
2017-11-05T07:09:05.830Z,37.10
2017-11-05T07:11:33.440Z,35.00
2017-11-05T07:14:01.134Z,37.30
2017-11-05T07:16:28.820Z,37.30
2017-11-05T07:18:56.522Z,38.90
2017-11-05T07:21:24.127Z,38.27
2017-11-05T07:23:51.842Z,39.00
2017-11-05T07:26:19.436Z,33.33
2017-11-05T07:28:47.106Z,40.87
2017-11-05T07:31:14.839Z,40.40
2017-11-05T07:33:42.518Z,36.13
2017-11-05T07:36:10.252Z,39.83
2017-11-05T07:38:37.938Z,41.27
2017-11-05T07:41:05.647Z,43.10
2017-11-05T07:43:33.322Z,41.43
2017-11-05T07:46:01.081Z,52.30
2017-11-05T07:48:28.737Z,44.73
2017-11-05T07:50:56.426Z,45.03
2017-11-05T07:53:24.026Z,39.43
2017-11-05T07:55:51.724Z,48.40
2017-11-05T07:58:19.386Z,46.30
2017-11-05T08:00:47.101Z,46.77
2017-11-05T08:03:14.752Z,48.17
2017-11-05T08:05:42.452Z,50.63
2017-11-05T08:08:10.119Z,53.27
2017-11-05T08:10:37.786Z,55.73
2017-11-05T08:13:05.495Z,53.00
2017-11-05T08:15:33.165Z,52.80
2017-11-05T08:18:00.858Z,63.23
2017-11-05T08:20:28.518Z,50.53
2017-11-05T08:22:56.226Z,54.40
2017-11-05T08:25:23.905Z,60.00
2017-11-05T08:27:51.597Z,64.87
2017-11-05T08:30:19.265Z,67.40
2017-11-05T08:32:46.981Z,71.20
2017-11-05T08:35:14.711Z,48.10
2017-11-05T08:37:42.404Z,63.07
2017-11-05T08:40:10.070Z,64.77
2017-11-05T08:42:37.679Z,60.80
2017-11-05T08:45:05.470Z,54.10
2017-11-05T08:47:33.085Z,51.10
2017-11-05T08:50:00.782Z,54.57
2017-11-05T08:52:28.452Z,53.07
2017-11-05T08:54:56.179Z,52.40
2017-11-05T08:57:23.778Z,40.23
2017-11-05T08:59:51.490Z,47.57
2017-11-05T09:02:19.187Z,51.03
2017-11-05T09:04:46.886Z,59.97
2017-11-05T09:07:14.544Z,54.53
2017-11-05T09:09:42.206Z,51.30
2017-11-05T09:12:09.931Z,48.90
2017-11-05T09:14:37.593Z,46.10
2017-11-05T09:17:05.300Z,43.50
2017-11-05T09:19:32.968Z,38.50
2017-11-05T09:22:00.664Z,30.23
2017-11-05T09:24:28.327Z,35.90
2017-11-05T09:26:56.019Z,35.00
2017-11-05T09:29:23.610Z,34.37
2017-11-05T09:31:51.308Z,25.07
2017-11-05T09:34:18.960Z,24.80
2017-11-05T09:36:46.701Z,28.33
2017-11-05T09:39:14.342Z,35.10
2017-11-05T09:41:42.024Z,26.00
2017-11-05T09:44:09.715Z,26.03
2017-11-05T09:46:37.371Z,24.03
2017-11-05T09:49:05.001Z,23.23
2017-11-05T09:51:32.659Z,23.03
2017-11-05T09:54:00.293Z,19.00
2017-11-05T09:56:27.963Z,16.83
2017-11-05T09:58:55.642Z,20.60
2017-11-05T10:01:23.310Z,19.30
2017-11-05T10:03:51.028Z,15.97
2017-11-05T10:06:18.800Z,14.60
2017-11-05T10:08:46.446Z,20.73
2017-11-05T10:11:14.146Z,13.30
2017-11-05T10:13:41.807Z,14.43
2017-11-05T10:16:09.509Z,18.03
2017-11-05T10:18:37.174Z,12.80
2017-11-05T10:21:04.869Z,11.10
2017-11-05T10:23:32.523Z,10.20
2017-11-05T10:26:00.202Z,17.60
2017-11-05T10:28:27.864Z,10.23
2017-11-05T10:30:55.574Z,7.27
2017-11-05T10:33:23.248Z,7.70
2017-11-05T10:35:53.926Z,5.70
2017-11-05T10:38:21.573Z,10.80
2017-11-05T10:40:49.275Z,8.93
2017-11-05T10:43:16.936Z,6.80
2017-11-05T10:45:44.593Z,8.10
2017-11-05T10:48:12.269Z,8.33
2017-11-05T10:50:39.908Z,9.07
2017-11-05T10:53:07.575Z,9.40
2017-11-05T10:55:35.224Z,6.90
2017-11-05T10:58:02.919Z,8.23
2017-11-05T11:00:30.562Z,7.13
2017-11-05T11:02:58.238Z,7.67
2017-11-05T11:05:25.838Z,7.23
2017-11-05T11:07:53.511Z,9.63
2017-11-05T11:10:21.146Z,9.40
2017-11-05T11:12:48.855Z,6.47
2017-11-05T11:15:16.496Z,7.03
2017-11-05T11:17:44.160Z,8.60
2017-11-05T11:20:11.876Z,9.63
2017-11-05T11:22:39.517Z,5.40
2017-11-05T11:25:07.211Z,5.30
2017-11-05T11:27:34.857Z,5.87
2017-11-05T11:30:02.568Z,6.63
2017-11-05T11:32:30.239Z,6.00
2017-11-05T11:34:57.950Z,6.00
2017-11-05T11:37:25.607Z,9.00
2017-11-05T11:39:53.290Z,4.50
2017-11-05T11:42:20.929Z,7.20
2017-11-05T11:44:48.629Z,6.53
2017-11-05T11:47:16.259Z,6.00
2017-11-05T11:49:43.923Z,4.77
2017-11-05T11:52:11.599Z,6.93
2017-11-05T11:54:39.256Z,4.73
2017-11-05T11:57:06.939Z,8.37
2017-11-05T11:59:34.583Z,5.63
2017-11-05T12:02:02.287Z,4.37
2017-11-05T12:04:29.968Z,5.70
2017-11-05T12:06:57.654Z,6.63
2017-11-05T12:09:25.300Z,6.80
2017-11-05T12:11:53.059Z,11.63
2017-11-05T12:14:20.724Z,9.93
2017-11-05T12:16:48.438Z,10.53
2017-11-05T12:19:16.084Z,9.63
2017-11-05T12:21:43.722Z,8.60
2017-11-05T12:24:11.417Z,8.03
2017-11-05T12:26:39.015Z,8.43
2017-11-05T12:29:06.703Z,12.17
2017-11-05T12:31:34.366Z,14.37
2017-11-05T12:34:02.072Z,11.80
2017-11-05T12:36:29.785Z,13.63
2017-11-05T12:38:57.463Z,8.90
2017-11-05T12:41:25.113Z,15.00
2017-11-05T12:43:52.819Z,15.47
2017-11-05T12:46:20.485Z,14.33
2017-11-05T12:48:48.197Z,11.17
2017-11-05T12:51:15.853Z,13.00
2017-11-05T12:53:43.518Z,17.87
2017-11-05T12:56:11.192Z,9.17
2017-11-05T12:58:38.840Z,16.90
2017-11-05T13:01:06.526Z,17.37
2017-11-05T13:03:34.178Z,13.63
2017-11-05T13:06:01.883Z,11.70
2017-11-05T13:08:29.539Z,15.17
2017-11-05T13:10:57.223Z,12.87
2017-11-05T13:13:24.892Z,14.50
2017-11-05T13:15:52.595Z,16.03
2017-11-05T13:18:20.247Z,17.40
2017-11-05T13:20:47.946Z,12.77
2017-11-05T13:23:15.619Z,15.50
2017-11-05T13:25:43.331Z,11.10
2017-11-05T13:28:10.998Z,11.23
2017-11-05T13:30:38.717Z,12.33
2017-11-05T13:33:06.363Z,13.93
2017-11-05T13:35:34.087Z,15.07
2017-11-05T13:38:01.767Z,10.40
2017-11-05T13:40:29.421Z,17.03
2017-11-05T13:42:57.101Z,15.23
2017-11-05T13:45:24.773Z,10.30
2017-11-05T13:47:52.466Z,15.50
2017-11-05T13:50:20.125Z,13.43
2017-11-05T13:52:47.793Z,19.33
2017-11-05T13:55:15.457Z,19.17
2017-11-05T13:57:43.162Z,13.80
2017-11-05T14:00:10.820Z,17.83
2017-11-05T14:02:38.524Z,15.47
2017-11-05T14:05:06.106Z,15.50
2017-11-05T14:07:33.817Z,12.13
2017-11-05T14:10:01.942Z,12.30
2017-11-05T14:12:29.588Z,16.23
2017-11-05T14:14:57.287Z,13.63
2017-11-05T14:17:24.959Z,13.13
2017-11-05T14:19:52.664Z,14.17
2017-11-05T14:22:20.319Z,20.13
2017-11-05T14:24:48.015Z,21.40
2017-11-05T14:27:15.657Z,17.10
2017-11-05T14:29:43.354Z,13.67
2017-11-05T14:32:11.015Z,11.03
2017-11-05T14:34:38.713Z,10.23
2017-11-05T14:37:06.401Z,11.30
2017-11-05T14:39:34.083Z,11.47
2017-11-05T14:42:01.682Z,11.63
2017-11-05T14:44:29.415Z,11.90
2017-11-05T14:46:57.112Z,16.03
2017-11-05T14:49:24.838Z,14.40
2017-11-05T14:51:52.532Z,17.63
2017-11-05T14:54:20.213Z,13.10
2017-11-05T14:56:47.934Z,17.87
2017-11-05T14:59:15.587Z,17.43
2017-11-05T15:01:43.283Z,12.47
2017-11-05T15:04:10.949Z,17.90
2017-11-05T15:06:38.793Z,16.00
2017-11-05T15:09:06.450Z,12.33
2017-11-05T15:11:34.151Z,17.77
2017-11-05T15:14:01.818Z,11.50
2017-11-05T15:16:29.509Z,16.30
2017-11-05T15:18:57.180Z,13.40
2017-11-05T15:21:24.873Z,12.30
2017-11-05T15:23:52.527Z,18.53
2017-11-05T15:26:20.228Z,15.23
2017-11-05T15:28:47.890Z,12.93
2017-11-05T15:31:15.573Z,12.97
2017-11-05T15:33:43.220Z,15.47
2017-11-05T15:36:10.975Z,13.90
2017-11-05T15:38:38.662Z,21.07
2017-11-05T15:41:06.380Z,17.33
2017-11-05T15:43:34.069Z,26.10
2017-11-05T15:46:01.719Z,24.27
2017-11-05T15:48:29.462Z,21.27
2017-11-05T15:50:57.173Z,20.90
2017-11-05T15:53:24.869Z,27.33
2017-11-05T15:55:52.630Z,21.10
2017-11-05T15:58:20.347Z,24.67
2017-11-05T16:00:48.050Z,26.00
2017-11-05T16:03:15.811Z,23.63
2017-11-05T16:05:43.494Z,24.40
2017-11-05T16:08:11.185Z,23.07
2017-11-05T16:10:38.829Z,20.00
2017-11-05T16:13:06.514Z,21.03
2017-11-05T16:15:34.171Z,25.10
2017-11-05T16:18:01.880Z,20.30
2017-11-05T16:20:29.528Z,18.73
2017-11-05T16:22:57.234Z,22.20
2017-11-05T16:25:24.943Z,20.13
2017-11-05T16:27:52.642Z,22.67
2017-11-05T16:30:20.318Z,17.30
2017-11-05T16:32:47.972Z,21.37
2017-11-05T16:35:15.698Z,24.13
2017-11-05T16:37:43.365Z,19.77
2017-11-05T16:40:11.059Z,18.73
2017-11-05T16:42:38.713Z,14.03
2017-11-05T16:45:06.393Z,17.00
2017-11-05T16:47:34.078Z,14.77
2017-11-05T16:50:01.758Z,16.33
2017-11-05T16:52:29.410Z,18.80
2017-11-05T16:54:57.087Z,22.10
2017-11-05T16:57:24.734Z,13.87
2017-11-05T16:59:52.420Z,13.07
2017-11-05T17:02:20.059Z,20.67
2017-11-05T17:04:47.714Z,15.20
2017-11-05T17:07:15.435Z,19.70
2017-11-05T17:09:43.080Z,15.87
2017-11-05T17:12:10.769Z,15.00
2017-11-05T17:14:38.502Z,21.07
2017-11-05T17:17:06.211Z,15.60
2017-11-05T17:19:33.853Z,15.37
2017-11-05T17:22:01.592Z,10.60
2017-11-05T17:24:29.248Z,13.70
2017-11-05T17:26:56.960Z,14.77
2017-11-05T17:29:24.654Z,16.03
2017-11-05T17:31:52.311Z,22.83
2017-11-05T17:34:20.004Z,10.80
2017-11-05T17:36:47.719Z,15.53
2017-11-05T17:39:15.426Z,18.90
2017-11-05T17:41:43.069Z,15.43
2017-11-05T17:44:10.767Z,20.87
2017-11-05T17:46:38.432Z,13.93
2017-11-05T17:49:06.116Z,11.50
2017-11-05T17:51:33.773Z,13.10
2017-11-05T17:54:01.481Z,10.23
2017-11-05T17:56:30.135Z,9.70
2017-11-05T17:58:57.846Z,10.10
2017-11-05T18:01:25.497Z,9.33
2017-11-05T18:03:53.191Z,10.17
2017-11-05T18:06:20.840Z,12.60
2017-11-05T18:08:48.535Z,14.90
2017-11-05T18:11:16.191Z,16.03
2017-11-05T18:13:43.842Z,9.87
2017-11-05T18:16:11.522Z,10.30
2017-11-05T18:18:39.176Z,12.00
2017-11-05T18:21:06.864Z,12.40
2017-11-05T18:23:34.523Z,11.60
2017-11-05T18:26:02.197Z,10.83
2017-11-05T18:28:29.845Z,9.33
2017-11-05T18:30:57.527Z,8.70
2017-11-05T18:33:25.187Z,11.13
2017-11-05T18:35:52.921Z,17.17
2017-11-05T18:38:20.575Z,13.80
2017-11-05T18:40:48.269Z,15.60
2017-11-05T18:43:15.915Z,7.90
2017-11-05T18:45:43.650Z,13.80
2017-11-05T18:48:11.301Z,11.33
2017-11-05T18:50:38.988Z,14.60
2017-11-05T18:53:06.673Z,10.10
2017-11-05T18:55:34.364Z,12.27
2017-11-05T18:58:02.049Z,12.30
2017-11-05T19:00:29.725Z,11.37
2017-11-05T19:02:57.423Z,9.47
2017-11-05T19:05:25.101Z,10.77
2017-11-05T19:07:52.817Z,12.40
2017-11-05T19:10:20.477Z,10.97
2017-11-05T19:12:48.183Z,12.13
2017-11-05T19:15:15.861Z,10.60
2017-11-05T19:17:43.585Z,10.73
2017-11-05T19:20:11.255Z,10.53
2017-11-05T19:22:38.927Z,10.70
2017-11-05T19:25:06.632Z,16.17
2017-11-05T19:27:34.300Z,17.03
2017-11-05T19:30:01.988Z,12.73
2017-11-05T19:32:29.639Z,10.43
2017-11-05T19:34:57.336Z,14.47
2017-11-05T19:37:25.045Z,12.40
2017-11-05T19:39:52.735Z,12.23
2017-11-05T19:42:20.417Z,11.67
2017-11-05T19:44:48.101Z,11.20
2017-11-05T19:47:15.767Z,16.00
2017-11-05T19:49:44.365Z,21.07
2017-11-05T19:52:12.073Z,12.70
2017-11-05T19:54:39.802Z,16.80
2017-11-05T19:57:08.534Z,14.57
2017-11-05T19:59:36.214Z,12.10
2017-11-05T20:02:03.857Z,10.07
2017-11-05T20:04:31.555Z,13.13
2017-11-05T20:06:59.197Z,10.17
2017-11-05T20:09:26.906Z,10.13
2017-11-05T20:11:54.571Z,14.40
2017-11-05T20:14:22.233Z,10.67
2017-11-05T20:16:49.933Z,9.30
2017-11-05T20:19:17.585Z,13.17
2017-11-05T20:21:45.196Z,13.03
2017-11-05T20:24:12.862Z,14.37
2017-11-05T20:26:40.568Z,17.53
2017-11-05T20:29:08.206Z,13.53
2017-11-05T20:31:35.880Z,14.13
2017-11-05T20:34:03.542Z,16.13
2017-11-05T20:36:31.271Z,14.27
2017-11-05T20:38:58.906Z,10.33
2017-11-05T20:41:26.605Z,12.33
2017-11-05T20:43:54.263Z,16.07
2017-11-05T20:46:21.935Z,14.93
2017-11-05T20:48:49.618Z,19.07
2017-11-05T20:51:17.253Z,12.00
2017-11-05T20:53:44.953Z,13.37
2017-11-05T20:56:12.614Z,10.93
2017-11-05T20:58:40.332Z,10.30
2017-11-05T21:01:07.991Z,16.47
2017-11-05T21:03:35.683Z,15.07
2017-11-05T21:06:03.330Z,14.43
2017-11-05T21:08:31.055Z,14.90
2017-11-05T21:10:58.696Z,13.63
2017-11-05T21:13:26.395Z,17.23
2017-11-05T21:15:54.045Z,20.53
2017-11-05T21:18:21.745Z,18.90
2017-11-05T21:20:49.406Z,17.53
2017-11-05T21:23:17.124Z,19.90
2017-11-05T21:25:44.785Z,17.27
2017-11-05T21:28:12.496Z,23.60
2017-11-05T21:30:40.170Z,15.93
2017-11-05T21:33:07.811Z,12.13
2017-11-05T21:35:35.546Z,13.73
2017-11-05T21:38:03.200Z,26.73
2017-11-05T21:40:30.919Z,13.20
2017-11-05T21:42:58.574Z,17.67
2017-11-05T21:45:26.272Z,14.10
2017-11-05T21:47:53.936Z,13.50
2017-11-05T21:50:21.625Z,11.30
2017-11-05T21:52:49.301Z,17.00
2017-11-05T21:55:17.007Z,12.83
2017-11-05T21:57:45.913Z,12.57
2017-11-05T22:00:13.637Z,15.13
2017-11-05T22:02:41.272Z,10.43
2017-11-05T22:05:08.970Z,14.67
2017-11-05T22:07:36.608Z,12.97
2017-11-05T22:10:04.327Z,15.53
2017-11-05T22:12:31.975Z,15.30
2017-11-05T22:14:59.660Z,14.90
2017-11-05T22:17:27.318Z,11.17
2017-11-05T22:19:55.007Z,11.27
2017-11-05T22:22:22.656Z,15.10
2017-11-05T22:24:50.371Z,14.87
2017-11-05T22:27:18.018Z,11.70
2017-11-05T22:29:45.680Z,11.83
2017-11-05T22:32:13.381Z,10.63
2017-11-05T22:34:41.039Z,12.33
2017-11-05T22:37:08.791Z,12.00
2017-11-05T22:39:36.447Z,15.97
2017-11-05T22:42:04.147Z,11.20
2017-11-05T22:44:31.798Z,12.53
2017-11-05T22:46:59.486Z,18.50
2017-11-05T22:49:27.140Z,13.00
2017-11-05T22:51:54.837Z,16.13
2017-11-05T22:54:22.483Z,12.47
2017-11-05T22:56:50.180Z,12.60
2017-11-05T22:59:17.838Z,14.30
2017-11-05T23:01:45.536Z,16.07
2017-11-05T23:04:13.206Z,10.53
2017-11-05T23:06:40.886Z,11.70
2017-11-05T23:09:08.531Z,17.63
2017-11-05T23:11:36.202Z,16.67
2017-11-05T23:14:03.839Z,19.57
2017-11-05T23:16:31.524Z,14.97
2017-11-05T23:18:59.176Z,16.57
2017-11-05T23:21:26.881Z,19.10
2017-11-05T23:23:54.521Z,9.23
2017-11-05T23:26:22.172Z,9.70
2017-11-05T23:28:49.858Z,12.40
2017-11-05T23:31:17.498Z,14.20
2017-11-05T23:33:45.204Z,11.40
2017-11-05T23:36:12.900Z,13.20
2017-11-05T23:38:40.604Z,17.87
2017-11-05T23:41:08.268Z,14.97
2017-11-05T23:43:35.963Z,10.60
2017-11-05T23:46:03.611Z,12.57
2017-11-05T23:48:31.293Z,11.00
2017-11-05T23:50:58.937Z,14.80
2017-11-05T23:53:26.619Z,16.80
2017-11-05T23:55:54.271Z,11.43
2017-11-05T23:58:23.139Z,14.50
